Thursday, November 23, 2017, 7:18 PM EST
Back to Local

KIWI, Wiscasset Municipal Airport

Location: Wiscasset, ME, United States Lat: 43.967
Local Time: 7:18 PM EST ( 0:18 GMT) Lon: -69.717
Time Zone: US/Eastern Elev: 68 ft

Show me the last for .
Show Decoded

2017-11-23 18:53 METAR KIWI 232353Z AUTO 00000KT 10SM CLR M01/M04 A2997 RMK AO2 SLP149 T10111039
                 10039 21011 53001 =
2017-11-23 17:53 METAR KIWI 232253Z AUTO 00000KT 10SM BKN110 M01/M05 A2996 RMK AO2 SLP148
                 T10061050 =
2017-11-23 16:53 METAR KIWI 232153Z AUTO 00000KT 10SM BKN110 M01/M04 A2997 RMK AO2 SLP149
                 T10111044 =
2017-11-23 15:53 METAR KIWI 232053Z AUTO 00000KT 10SM CLR 01/M07 A2997 RMK AO2 SLP148 T00111072
                 53009 =
2017-11-23 14:53 METAR KIWI 231953Z AUTO VRB03KT 10SM CLR 03/M09 A2995 RMK AO2 SLP143 T00281089 =
2017-11-23 13:53 METAR KIWI 231853Z AUTO VRB05KT 10SM CLR 04/M09 A2995 RMK AO2 SLP141 T00391089 =
2017-11-23 12:53 METAR KIWI 231753Z AUTO 29007KT 10SM CLR 04/M08 A2994 RMK AO2 SLP138 T00391078
                 10039 21017 56017 =
2017-11-23 11:53 METAR KIWI 231653Z AUTO VRB06KT 10SM CLR 03/M07 A2995 RMK AO2 SLP142 T00281072 =
2017-11-23 10:53 METAR KIWI 231553Z AUTO 28007KT 240V350 10SM CLR 02/M07 A2997 RMK AO2 SLP149
                 T00171067 =
2017-11-23 09:53 METAR KIWI 231453Z AUTO VRB05KT 10SM CLR 01/M07 A2999 RMK AO2 SLP155 T00111067
                 51003 =
2017-11-23 08:53 METAR KIWI 231353Z AUTO 10SM CLR 01/M06 A2999 RMK AO2 SLP155 T00061061 =
2017-11-23 07:53 METAR KIWI 231253Z AUTO 28003KT 10SM CLR M01/M06 A3000 RMK AO2 SLP158 T10061061
                 =
2017-11-23 06:53 METAR KIWI 231153Z AUTO VRB04KT 10SM CLR M01/M07 A2998 RMK AO2 SLP153 70068
                 T10111072 10022 21011 53023 =
2017-11-23 05:53 METAR KIWI 231053Z AUTO VRB03KT 10SM CLR M01/M06 A2995 RMK AO2 SLP140 T10111056
                 =
2017-11-23 04:53 METAR KIWI 230953Z AUTO VRB03KT 10SM CLR 00/M05 A2994 RMK AO2 SLP138 T00001050 =
2017-11-23 03:53 METAR KIWI 230853Z AUTO VRB04KT 10SM CLR 00/M04 A2991 RMK AO2 SLP130 T00001039
                 51023 =
2017-11-23 02:53 METAR KIWI 230753Z AUTO VRB05KT 10SM CLR 01/M04 A2991 RMK AO2 SLP129 T00061039 =
2017-11-23 01:53 METAR KIWI 230653Z AUTO 31006KT 10SM CLR 01/M04 A2989 RMK AO2 SLP121 T00111039 =
2017-11-23 00:53 METAR KIWI 230553Z AUTO VRB05KT 10SM CLR 02/M02 A2985 RMK AO2 SLP106 60006
                 T00221017 10044 20022 53017 =
2017-11-22 23:53 METAR KIWI 230453Z AUTO VRB05KT 10SM OVC060 03/00 A2983 RMK AO2 SLP101 T00330000
                 401060022 =
2017-11-22 22:53 METAR KIWI 230353Z AUTO VRB05KT 10SM OVC055 03/02 A2981 RMK AO2 SLP094 T00330017
                 =
2017-11-22 21:53 METAR KIWI 230253Z AUTO VRB04KT 10SM OVC046 04/02 A2980 RMK AO2 SLP090 60006
                 T00390022 50001 =
2017-11-22 20:53 METAR KIWI 230153Z AUTO VRB05KT 10SM SCT012 SCT019 OVC039 04/03 A2981 RMK AO2
                 RAE49 SLP094 P0003 T00390028 =
2017-11-22 20:49 METAR KIWI 230149Z AUTO VRB05KT 10SM SCT012 BKN032 OVC039 04/03 A2981 RMK AO2
                 RAE49 P0003 =
2017-11-22 19:53 METAR KIWI 230053Z AUTO VRB05KT 10SM -RA OVC013 04/03 A2979 RMK AO2 SLP088 P0003
                 T00440033 =

Support USWX by starting your Amazon purchase here.